Time;durP1;ratioP1;P1;durP2;ratioP2;P2;SDS_P1;SDS_P2;PMS_P1;PMS_P2;Temp;Humidity;BMP_temperature;BMP_pressure;BME280_temperature;BME280_humidity;BME280_pressure;Samples;Min_cycle;Max_cycle;Signal;HPM_P1;HPM_P2
2023/10/21 00:00:17;;;;;;;16.33;6.55;;;;;;;;;;5069384;27;98176;-74
2023/10/21 00:02:44;;;;;;;13.65;6.47;;;;;;;;;;5069830;27;99491;-74
2023/10/21 00:05:10;;;;;;;10.50;7.47;;;;;;;;;;5068580;27;100123;-74
2023/10/21 00:07:37;;;;;;;17.98;7.18;;;;;;;;;;5068100;27;98231;-74
2023/10/21 00:10:06;;;;;;;15.30;6.88;;;;;;;;;;5063332;27;100226;-75
2023/10/21 00:12:33;;;;;;;11.90;6.78;;;;;;;;;;5067744;27;98587;-74
2023/10/21 00:15:00;;;;;;;17.38;7.78;;;;;;;;;;5067695;27;99570;-73
2023/10/21 00:17:27;;;;;;;8.20;6.55;;;;;;;;;;5069821;27;99890;-73
2023/10/21 00:19:53;;;;;;;13.82;6.72;;;;;;;;;;5068914;27;98198;-73
2023/10/21 00:22:20;;;;;;;11.20;6.43;;;;;;;;;;5066999;27;98584;-72
2023/10/21 00:24:46;;;;;;;23.15;7.30;;;;;;;;;;5047513;27;98960;-73
2023/10/21 00:27:13;;;;;;;12.73;6.88;;;;;;;;;;5047904;27;98151;-72
2023/10/21 00:29:39;;;;;;;15.40;7.13;;;;;;;;;;5052161;27;98383;-74
2023/10/21 00:32:06;;;;;;;12.45;6.38;;;;;;;;;;5047680;27;98921;-74
2023/10/21 00:34:38;;;;;;;15.05;6.43;;;;;;;;;;5065674;27;98478;-74
2023/10/21 00:37:08;;;;;;;19.90;6.80;;;;;;;;;;5066734;27;100244;-73
2023/10/21 00:39:34;;;;;;;27.00;6.25;;;;;;;;;;5046794;27;99263;-73
2023/10/21 00:42:02;;;;;;;13.93;7.47;;;;;;;;;;5055061;27;100475;-73
2023/10/21 00:44:29;;;;;;;14.30;7.03;;;;;;;;;;5066849;27;101523;-75
2023/10/21 00:47:00;;;;;;;11.23;6.70;;;;;;;;;;5066661;27;98203;-74
2023/10/21 00:49:28;;;;;;;15.45;7.68;;;;;;;;;;5068347;27;98322;-74
2023/10/21 00:51:55;;;;;;;13.20;6.30;;;;;;;;;;5072453;27;98183;-74
2023/10/21 00:54:22;;;;;;;13.52;6.90;;;;;;;;;;5067842;27;98604;-76
2023/10/21 00:56:48;;;;;;;19.77;7.22;;;;;;;;;;5067197;27;100265;-73
2023/10/21 00:59:15;;;;;;;22.38;7.57;;;;;;;;;;5064698;27;98473;-75
2023/10/21 01:01:43;;;;;;;18.80;7.43;;;;;;;;;;5068429;27;98501;-74
2023/10/21 01:04:11;;;;;;;15.32;6.82;;;;;;;;;;5068437;27;99964;-74
2023/10/21 01:06:38;;;;;;;13.65;7.00;;;;;;;;;;5067295;27;98248;-74
2023/10/21 01:09:04;;;;;;;12.68;6.68;;;;;;;;;;5067635;27;98688;-74
2023/10/21 01:11:31;;;;;;;15.45;6.65;;;;;;;;;;5069297;27;101110;-73
2023/10/21 01:13:57;;;;;;;10.75;5.78;;;;;;;;;;5066935;27;98477;-73
2023/10/21 01:16:24;;;;;;;12.25;7.25;;;;;;;;;;5065838;27;98958;-73
2023/10/21 01:18:51;;;;;;;10.63;6.10;;;;;;;;;;5056352;27;98324;-74
2023/10/21 01:21:17;;;;;;;12.95;6.85;;;;;;;;;;5068257;27;98810;-75
2023/10/21 01:23:44;;;;;;;12.82;7.03;;;;;;;;;;5065922;27;101861;-73
2023/10/21 01:26:11;;;;;;;13.88;6.45;;;;;;;;;;5061395;27;99217;-72
2023/10/21 01:28:37;;;;;;;16.55;6.82;;;;;;;;;;5059426;27;101342;-73
2023/10/21 01:31:04;;;;;;;12.27;7.68;;;;;;;;;;5061476;27;99647;-74
2023/10/21 01:33:30;;;;;;;21.52;7.43;;;;;;;;;;5064796;27;98342;-75
2023/10/21 01:35:57;;;;;;;9.00;6.43;;;;;;;;;;5058997;27;102349;-74
2023/10/21 01:38:24;;;;;;;12.02;6.68;;;;;;;;;;5062677;27;98372;-74
2023/10/21 01:40:51;;;;;;;29.30;6.90;;;;;;;;;;5061410;27;98527;-73
2023/10/21 01:43:17;;;;;;;15.02;7.55;;;;;;;;;;5065314;27;98786;-73
2023/10/21 01:45:44;;;;;;;9.85;6.45;;;;;;;;;;5062065;27;98976;-73
2023/10/21 01:48:11;;;;;;;13.73;6.75;;;;;;;;;;5059231;27;98867;-74
2023/10/21 01:50:37;;;;;;;14.32;6.80;;;;;;;;;;5060708;27;100013;-74
2023/10/21 01:53:05;;;;;;;15.07;6.18;;;;;;;;;;5066744;27;98922;-73
2023/10/21 01:55:31;;;;;;;19.80;6.35;;;;;;;;;;5068915;27;99720;-74
2023/10/21 01:58:00;;;;;;;13.15;6.10;;;;;;;;;;5059252;27;98680;-74
2023/10/21 02:00:27;;;;;;;13.80;5.80;;;;;;;;;;5054011;27;98762;-74
2023/10/21 02:02:55;;;;;;;14.60;5.88;;;;;;;;;;5060729;27;99081;-74
2023/10/21 02:05:23;;;;;;;11.55;6.28;;;;;;;;;;5061048;27;99427;-73
2023/10/21 02:07:50;;;;;;;14.02;6.57;;;;;;;;;;5068070;27;99529;-73
2023/10/21 02:10:19;;;;;;;13.25;6.28;;;;;;;;;;5067439;27;100999;-73
2023/10/21 02:12:46;;;;;;;7.18;6.25;;;;;;;;;;5065442;27;98319;-73
2023/10/21 02:15:14;;;;;;;13.23;6.45;;;;;;;;;;5066962;27;100277;-73
2023/10/21 02:17:42;;;;;;;10.10;6.22;;;;;;;;;;5071096;27;99030;-73
2023/10/21 02:20:12;;;;;;;9.45;6.55;;;;;;;;;;5047919;27;101385;-73
2023/10/21 02:22:39;;;;;;;10.57;6.40;;;;;;;;;;5083670;27;99279;-73
2023/10/21 02:25:13;;;;;;;19.27;6.85;;;;;;;;;;5076906;27;98525;-73
2023/10/21 02:27:41;;;;;;;9.98;6.53;;;;;;;;;;5080663;27;99232;-73
2023/10/21 02:30:10;;;;;;;20.48;6.82;;;;;;;;;;5074752;27;100903;-73
2023/10/21 02:32:37;;;;;;;18.85;6.90;;;;;;;;;;5082263;27;98228;-73
2023/10/21 02:35:04;;;;;;;23.98;7.22;;;;;;;;;;5096429;27;101225;-73
2023/10/21 02:37:32;;;;;;;11.38;6.80;;;;;;;;;;5096687;27;98912;-74
2023/10/21 02:40:01;;;;;;;7.65;5.97;;;;;;;;;;5090185;27;98236;-73
2023/10/21 02:42:27;;;;;;;17.90;6.63;;;;;;;;;;5087865;27;99455;-73
2023/10/21 02:44:54;;;;;;;16.17;7.50;;;;;;;;;;5062702;27;98730;-74
2023/10/21 02:47:20;;;;;;;15.63;6.72;;;;;;;;;;5060591;27;98917;-73
2023/10/21 02:49:47;;;;;;;16.90;6.75;;;;;;;;;;5058893;27;99119;-74
2023/10/21 02:52:14;;;;;;;13.27;6.53;;;;;;;;;;5064329;27;98128;-74
2023/10/21 02:54:40;;;;;;;14.85;6.78;;;;;;;;;;5066627;27;98698;-73
2023/10/21 02:57:07;;;;;;;23.38;7.25;;;;;;;;;;5061974;27;101066;-73
2023/10/21 02:59:36;;;;;;;15.18;7.53;;;;;;;;;;5066638;27;99812;-74
2023/10/21 03:02:03;;;;;;;16.27;6.38;;;;;;;;;;5059250;27;99817;-73
2023/10/21 03:04:29;;;;;;;13.38;6.47;;;;;;;;;;5060649;27;99618;-73
2023/10/21 03:06:55;;;;;;;13.63;7.05;;;;;;;;;;5062553;27;99754;-73
2023/10/21 03:09:22;;;;;;;15.90;7.07;;;;;;;;;;5066147;27;99664;-73
2023/10/21 03:11:49;;;;;;;15.55;7.80;;;;;;;;;;5069561;27;98222;-73
2023/10/21 03:14:15;;;;;;;10.73;7.10;;;;;;;;;;5066977;27;98703;-73
2023/10/21 03:16:42;;;;;;;9.02;6.35;;;;;;;;;;5067543;27;98863;-73
2023/10/21 03:19:08;;;;;;;8.82;6.68;;;;;;;;;;5066102;27;98282;-73
2023/10/21 03:21:35;;;;;;;12.45;7.03;;;;;;;;;;5070591;27;98650;-73
2023/10/21 03:24:03;;;;;;;10.50;6.80;;;;;;;;;;5068881;27;98432;-73
2023/10/21 03:26:29;;;;;;;9.15;6.82;;;;;;;;;;5069901;27;98533;-73
2023/10/21 03:28:56;;;;;;;19.48;7.55;;;;;;;;;;5069790;27;99193;-75
2023/10/21 03:31:23;;;;;;;15.48;6.82;;;;;;;;;;5068644;27;98300;-75
2023/10/21 03:33:49;;;;;;;13.85;7.47;;;;;;;;;;5065573;27;99382;-74
2023/10/21 03:36:16;;;;;;;16.35;7.25;;;;;;;;;;5067769;27;99066;-75
2023/10/21 03:38:42;;;;;;;9.65;6.90;;;;;;;;;;5067116;27;99194;-74
2023/10/21 03:41:09;;;;;;;10.93;6.82;;;;;;;;;;5068119;27;98763;-75
2023/10/21 03:43:36;;;;;;;11.65;6.88;;;;;;;;;;5071173;27;98686;-75
2023/10/21 03:46:06;;;;;;;13.50;7.47;;;;;;;;;;5069870;27;98432;-74
2023/10/21 03:48:33;;;;;;;10.75;7.00;;;;;;;;;;5069582;27;98954;-73
2023/10/21 03:51:12;;;;;;;18.33;6.88;;;;;;;;;;5069524;27;98161;-73
2023/10/21 03:53:40;;;;;;;25.38;7.80;;;;;;;;;;5069730;27;99439;-74
2023/10/21 03:56:08;;;;;;;19.40;7.78;;;;;;;;;;5069089;27;100437;-74
2023/10/21 03:58:35;;;;;;;15.55;6.95;;;;;;;;;;5085632;27;98269;-75
2023/10/21 04:01:02;;;;;;;16.60;7.53;;;;;;;;;;5079294;27;98552;-73
2023/10/21 04:03:29;;;;;;;14.30;7.55;;;;;;;;;;5068684;27;99895;-75
2023/10/21 04:05:56;;;;;;;12.32;7.32;;;;;;;;;;5071891;27;98267;-74
2023/10/21 04:08:23;;;;;;;10.27;8.15;;;;;;;;;;5068853;27;99043;-74
2023/10/21 04:10:52;;;;;;;12.80;6.68;;;;;;;;;;5067553;27;98272;-74
2023/10/21 04:13:19;;;;;;;10.35;6.97;;;;;;;;;;5069463;27;99714;-74
2023/10/21 04:15:45;;;;;;;18.88;7.47;;;;;;;;;;5069338;27;99917;-74
2023/10/21 04:18:12;;;;;;;10.70;7.15;;;;;;;;;;5065477;27;98261;-73
2023/10/21 04:20:39;;;;;;;15.35;6.97;;;;;;;;;;5067838;27;99582;-73
2023/10/21 04:23:05;;;;;;;11.38;6.80;;;;;;;;;;5068577;27;99893;-73
2023/10/21 04:25:32;;;;;;;12.65;6.68;;;;;;;;;;5054248;27;98757;-74
2023/10/21 04:27:58;;;;;;;15.40;7.55;;;;;;;;;;5070999;27;100020;-73
2023/10/21 04:30:25;;;;;;;22.05;6.93;;;;;;;;;;5063074;27;98379;-73
2023/10/21 04:32:52;;;;;;;14.68;6.90;;;;;;;;;;5067999;27;99808;-74
2023/10/21 04:35:19;;;;;;;11.18;6.32;;;;;;;;;;5066618;27;99629;-73
2023/10/21 04:37:45;;;;;;;11.20;6.65;;;;;;;;;;5066302;27;99939;-74
2023/10/21 04:40:13;;;;;;;11.52;5.95;;;;;;;;;;5067859;27;98892;-73
2023/10/21 04:42:40;;;;;;;14.98;7.15;;;;;;;;;;5062206;27;100038;-74
2023/10/21 04:45:07;;;;;;;13.07;7.97;;;;;;;;;;5067987;27;98745;-73
2023/10/21 04:47:33;;;;;;;14.07;6.90;;;;;;;;;;5065451;27;100188;-73
2023/10/21 04:50:00;;;;;;;14.82;6.75;;;;;;;;;;5066614;27;100081;-74
2023/10/21 04:52:26;;;;;;;15.43;7.15;;;;;;;;;;5065078;27;99824;-73
2023/10/21 04:54:52;;;;;;;11.70;9.57;;;;;;;;;;5067992;27;99873;-74
2023/10/21 04:57:20;;;;;;;11.48;7.13;;;;;;;;;;5066900;27;99083;-74
2023/10/21 04:59:47;;;;;;;15.57;8.00;;;;;;;;;;5064861;27;99959;-73
2023/10/21 05:02:13;;;;;;;12.80;6.65;;;;;;;;;;5065725;27;100333;-73
2023/10/21 05:04:40;;;;;;;18.10;6.88;;;;;;;;;;5063983;27;98235;-74
2023/10/21 05:07:07;;;;;;;7.30;6.55;;;;;;;;;;5060197;27;99353;-73
2023/10/21 05:09:33;;;;;;;21.98;7.40;;;;;;;;;;5067328;27;99813;-73
2023/10/21 05:12:00;;;;;;;9.63;6.88;;;;;;;;;;5064469;27;99496;-74
2023/10/21 05:14:27;;;;;;;12.02;6.93;;;;;;;;;;5053109;27;98864;-74
2023/10/21 05:16:53;;;;;;;12.15;6.97;;;;;;;;;;5059988;27;98356;-73
2023/10/21 05:19:20;;;;;;;13.77;7.45;;;;;;;;;;5055779;27;100364;-73
2023/10/21 05:21:48;;;;;;;13.63;6.68;;;;;;;;;;5058628;27;99838;-73
2023/10/21 05:24:14;;;;;;;20.48;7.53;;;;;;;;;;5060030;27;98456;-74
2023/10/21 05:26:41;;;;;;;12.23;6.95;;;;;;;;;;5056005;27;100290;-72
2023/10/21 05:29:07;;;;;;;21.20;7.25;;;;;;;;;;5067463;27;99339;-73
2023/10/21 05:31:34;;;;;;;11.18;6.28;;;;;;;;;;5071336;27;98751;-73
2023/10/21 05:34:00;;;;;;;14.05;6.28;;;;;;;;;;5068135;27;98919;-74
2023/10/21 05:36:27;;;;;;;17.45;6.20;;;;;;;;;;5067677;27;98230;-73
2023/10/21 05:38:54;;;;;;;14.93;6.45;;;;;;;;;;5068154;27;99285;-73
2023/10/21 05:41:21;;;;;;;16.55;6.60;;;;;;;;;;5067810;27;98826;-73
2023/10/21 05:43:47;;;;;;;15.63;5.55;;;;;;;;;;5066560;27;98292;-73
2023/10/21 05:46:14;;;;;;;13.07;6.63;;;;;;;;;;5067759;27;99555;-74
2023/10/21 05:48:40;;;;;;;21.10;6.50;;;;;;;;;;5067020;27;99333;-74
2023/10/21 05:51:07;;;;;;;12.98;6.68;;;;;;;;;;5068091;27;98314;-73
2023/10/21 05:53:33;;;;;;;11.48;6.03;;;;;;;;;;5070964;27;99317;-73
2023/10/21 05:56:00;;;;;;;13.30;7.43;;;;;;;;;;5067375;27;98231;-73
2023/10/21 05:58:26;;;;;;;13.43;6.18;;;;;;;;;;5067620;27;98548;-73
2023/10/21 06:01:09;;;;;;;13.23;6.75;;;;;;;;;;5068167;27;99080;-73
2023/10/21 06:03:36;;;;;;;19.67;6.20;;;;;;;;;;5066710;27;98253;-73
2023/10/21 06:06:03;;;;;;;12.68;6.00;;;;;;;;;;5067807;27;99503;-74
2023/10/21 06:08:29;;;;;;;18.25;6.72;;;;;;;;;;5066501;27;100112;-73
2023/10/21 06:10:56;;;;;;;14.30;6.32;;;;;;;;;;5066741;27;98553;-74
2023/10/21 06:13:25;;;;;;;21.77;6.93;;;;;;;;;;5067936;27;99714;-73
2023/10/21 06:15:52;;;;;;;21.85;6.95;;;;;;;;;;5070692;27;99299;-73
2023/10/21 06:18:19;;;;;;;13.18;6.35;;;;;;;;;;5066651;27;98791;-73
2023/10/21 06:20:48;;;;;;;20.60;7.07;;;;;;;;;;5067622;27;98817;-73
2023/10/21 06:23:16;;;;;;;13.55;6.28;;;;;;;;;;5067423;27;98260;-73
2023/10/21 06:25:43;;;;;;;19.35;6.60;;;;;;;;;;5065721;27;99625;-73
2023/10/21 06:28:10;;;;;;;15.27;6.70;;;;;;;;;;5067275;27;99329;-73
2023/10/21 06:30:36;;;;;;;28.58;6.72;;;;;;;;;;5069729;27;98785;-73
2023/10/21 06:33:03;;;;;;;17.02;7.22;;;;;;;;;;5069577;27;98752;-73
2023/10/21 06:35:30;;;;;;;22.52;6.97;;;;;;;;;;5070438;27;99423;-73
2023/10/21 06:37:56;;;;;;;9.55;7.20;;;;;;;;;;5073020;27;98297;-73
2023/10/21 06:40:23;;;;;;;14.40;6.60;;;;;;;;;;5070204;27;98905;-74
2023/10/21 06:43:10;;;;;;;17.70;7.55;;;;;;;;;;5071159;27;98542;-74
2023/10/21 06:45:38;;;;;;;16.98;6.38;;;;;;;;;;5070258;27;98770;-74
2023/10/21 06:48:05;;;;;;;19.80;7.75;;;;;;;;;;5068868;27;99079;-73
2023/10/21 06:50:33;;;;;;;18.25;6.32;;;;;;;;;;5070542;27;98275;-73
2023/10/21 06:53:00;;;;;;;14.95;5.32;;;;;;;;;;5070180;27;99732;-75
2023/10/21 06:55:26;;;;;;;16.42;6.43;;;;;;;;;;5070224;27;99295;-74
2023/10/21 06:57:53;;;;;;;18.73;6.78;;;;;;;;;;5070253;27;98491;-74
2023/10/21 07:00:19;;;;;;;20.02;6.25;;;;;;;;;;5073022;27;98617;-74
2023/10/21 07:02:46;;;;;;;16.90;6.45;;;;;;;;;;5069687;27;98693;-74
2023/10/21 07:05:12;;;;;;;16.23;6.07;;;;;;;;;;5070606;27;98672;-74
2023/10/21 07:07:41;;;;;;;9.75;5.65;;;;;;;;;;5069485;27;99162;-74
2023/10/21 07:10:09;;;;;;;13.93;6.22;;;;;;;;;;5070342;27;98345;-74
2023/10/21 07:12:37;;;;;;;13.05;5.43;;;;;;;;;;5070696;27;99522;-73
2023/10/21 07:15:04;;;;;;;17.95;6.32;;;;;;;;;;5069641;27;99114;-74
2023/10/21 07:17:34;;;;;;;13.35;5.80;;;;;;;;;;5070115;27;98239;-73
2023/10/21 07:20:01;;;;;;;14.38;6.20;;;;;;;;;;5073441;27;99260;-74
2023/10/21 07:22:27;;;;;;;12.48;6.70;;;;;;;;;;5069214;27;98167;-73
2023/10/21 07:24:55;;;;;;;19.60;6.22;;;;;;;;;;5070410;27;98657;-73
2023/10/21 07:27:22;;;;;;;17.70;5.90;;;;;;;;;;5069054;27;100033;-74
2023/10/21 07:29:48;;;;;;;20.80;6.25;;;;;;;;;;5070496;27;98211;-72
2023/10/21 07:32:15;;;;;;;18.15;6.13;;;;;;;;;;5069550;27;99440;-74
2023/10/21 07:34:42;;;;;;;14.27;5.43;;;;;;;;;;5069211;27;99968;-75
2023/10/21 07:37:08;;;;;;;10.77;5.15;;;;;;;;;;5070253;27;98243;-72
2023/10/21 07:39:35;;;;;;;21.13;5.82;;;;;;;;;;5069831;27;99442;-73
2023/10/21 07:42:02;;;;;;;14.35;6.00;;;;;;;;;;5072068;27;100170;-73
2023/10/21 07:44:29;;;;;;;15.88;6.05;;;;;;;;;;5069832;27;98574;-73
2023/10/21 07:46:55;;;;;;;14.02;5.70;;;;;;;;;;5069112;27;100268;-73
2023/10/21 07:49:23;;;;;;;14.32;5.40;;;;;;;;;;5068712;27;98239;-72
2023/10/21 07:51:49;;;;;;;10.95;4.93;;;;;;;;;;5070724;27;99277;-73
2023/10/21 07:54:16;;;;;;;11.80;5.00;;;;;;;;;;5067604;27;100008;-73
2023/10/21 07:56:44;;;;;;;10.30;4.85;;;;;;;;;;5069223;27;98865;-74
2023/10/21 07:59:11;;;;;;;10.45;4.85;;;;;;;;;;5068440;27;99513;-73
2023/10/21 08:01:37;;;;;;;17.13;4.78;;;;;;;;;;5049537;27;98064;-75
2023/10/21 08:04:04;;;;;;;8.43;4.78;;;;;;;;;;5052252;27;98413;-73
2023/10/21 08:06:30;;;;;;;6.90;4.97;;;;;;;;;;5048452;27;98678;-73
2023/10/21 08:08:57;;;;;;;12.50;5.18;;;;;;;;;;5049008;27;98570;-73
2023/10/21 08:11:24;;;;;;;17.25;5.22;;;;;;;;;;5047441;27;98666;-73
2023/10/21 08:13:51;;;;;;;13.52;6.80;;;;;;;;;;5049197;27;99052;-74
2023/10/21 08:16:17;;;;;;;17.20;6.13;;;;;;;;;;5048326;27;98253;-75
2023/10/21 08:18:44;;;;;;;8.02;5.45;;;;;;;;;;5049443;27;98636;-74
2023/10/21 08:21:12;;;;;;;9.45;5.25;;;;;;;;;;5049421;27;100385;-74
2023/10/21 08:23:39;;;;;;;17.55;5.50;;;;;;;;;;5054286;27;98335;-74
2023/10/21 08:26:05;;;;;;;6.97;5.15;;;;;;;;;;5073476;27;99503;-75
2023/10/21 08:28:31;;;;;;;6.43;5.10;;;;;;;;;;5075258;27;98230;-73
2023/10/21 08:30:58;;;;;;;7.45;4.82;;;;;;;;;;5071244;27;99597;-73
2023/10/21 08:33:24;;;;;;;5.82;4.63;;;;;;;;;;5069164;27;100032;-74
2023/10/21 08:35:51;;;;;;;5.28;3.60;;;;;;;;;;5060634;27;98725;-73
2023/10/21 08:38:17;;;;;;;8.25;3.50;;;;;;;;;;5059017;27;99541;-73
2023/10/21 08:40:46;;;;;;;3.42;2.55;;;;;;;;;;5049948;27;99211;-73
2023/10/21 08:43:15;;;;;;;3.85;2.90;;;;;;;;;;5054722;27;98246;-72
2023/10/21 08:45:43;;;;;;;6.15;2.33;;;;;;;;;;5062400;27;98765;-73
2023/10/21 08:48:11;;;;;;;6.32;2.10;;;;;;;;;;5057864;27;100337;-73
2023/10/21 08:50:38;;;;;;;8.80;2.88;;;;;;;;;;5060290;27;99424;-73
2023/10/21 08:53:06;;;;;;;2.30;2.10;;;;;;;;;;5046240;27;100164;-74
2023/10/21 08:55:35;;;;;;;2.65;2.10;;;;;;;;;;5056143;27;98303;-74
2023/10/21 08:58:02;;;;;;;8.35;2.05;;;;;;;;;;5050920;27;98802;-72
2023/10/21 09:00:28;;;;;;;1.83;1.35;;;;;;;;;;5057016;27;99951;-74
2023/10/21 09:02:55;;;;;;;5.88;2.88;;;;;;;;;;5063057;27;98230;-74
2023/10/21 09:05:22;;;;;;;2.80;1.40;;;;;;;;;;5059022;27;99600;-72
2023/10/21 09:07:49;;;;;;;1.83;1.20;;;;;;;;;;5060332;27;100095;-73
2023/10/21 09:10:17;;;;;;;6.78;0.90;;;;;;;;;;5071653;27;98021;-73
2023/10/21 09:12:45;;;;;;;2.67;1.35;;;;;;;;;;5067893;27;100040;-73
2023/10/21 09:15:12;;;;;;;1.95;1.10;;;;;;;;;;5054391;27;98314;-75
2023/10/21 09:17:40;;;;;;;2.35;0.82;;;;;;;;;;5067057;27;98751;-75
2023/10/21 09:20:09;;;;;;;4.80;1.50;;;;;;;;;;5067584;27;99127;-73
2023/10/21 09:22:36;;;;;;;5.75;1.40;;;;;;;;;;5067938;27;98222;-74
2023/10/21 09:25:15;;;;;;;0.88;0.88;;;;;;;;;;5059566;27;99251;-73
2023/10/21 09:27:43;;;;;;;2.17;1.05;;;;;;;;;;5050947;27;98916;-75
2023/10/21 09:30:13;;;;;;;3.60;1.05;;;;;;;;;;5051414;27;99408;-74
2023/10/21 09:32:41;;;;;;;2.20;0.90;;;;;;;;;;5048344;27;100127;-74
2023/10/21 09:35:15;;;;;;;1.73;0.77;;;;;;;;;;5066855;27;98465;-73
2023/10/21 09:37:42;;;;;;;1.85;0.90;;;;;;;;;;5049429;27;99396;-73
2023/10/21 09:40:09;;;;;;;0.73;0.73;;;;;;;;;;5047592;27;99870;-73
2023/10/21 09:42:42;;;;;;;1.30;0.57;;;;;;;;;;5058427;27;100464;-74
2023/10/21 09:45:10;;;;;;;5.95;1.25;;;;;;;;;;5068573;27;99769;-73
2023/10/21 09:47:39;;;;;;;1.33;0.60;;;;;;;;;;5051107;27;99003;-74
2023/10/21 09:50:15;;;;;;;5.57;1.02;;;;;;;;;;5047941;27;98680;-73
2023/10/21 09:52:41;;;;;;;1.95;0.95;;;;;;;;;;5061897;27;99679;-72
2023/10/21 09:55:10;;;;;;;4.10;0.80;;;;;;;;;;5065925;27;98597;-73
2023/10/21 09:57:37;;;;;;;1.40;0.77;;;;;;;;;;5048965;27;99207;-75
2023/10/21 10:00:07;;;;;;;8.68;1.10;;;;;;;;;;5047502;27;100065;-75
2023/10/21 10:02:35;;;;;;;0.50;0.50;;;;;;;;;;5049289;27;98907;-74
2023/10/21 10:05:06;;;;;;;0.68;0.68;;;;;;;;;;5053760;27;98713;-73
2023/10/21 10:07:35;;;;;;;2.60;1.02;;;;;;;;;;5048322;27;101717;-73
2023/10/21 10:10:10;;;;;;;1.25;0.88;;;;;;;;;;5066875;27;98325;-73
2023/10/21 10:12:39;;;;;;;1.40;0.73;;;;;;;;;;5067618;27;99194;-73
2023/10/21 10:15:27;;;;;;;1.58;0.90;;;;;;;;;;5069271;27;99188;-74
2023/10/21 10:17:54;;;;;;;2.85;1.00;;;;;;;;;;5067100;27;99625;-73
2023/10/21 10:20:25;;;;;;;2.70;0.93;;;;;;;;;;5066957;27;98991;-74
2023/10/21 10:23:07;;;;;;;2.30;0.90;;;;;;;;;;5067453;27;98889;-74
2023/10/21 10:25:34;;;;;;;;;;;;;;;;;;5060911;27;98723;-73
2023/10/21 10:28:04;;;;;;;2.55;0.80;;;;;;;;;;5062414;27;129690;-73
2023/10/21 10:30:31;;;;;;;1.17;0.90;;;;;;;;;;5049074;27;99070;-74
2023/10/21 10:33:12;;;;;;;1.95;0.90;;;;;;;;;;5047552;27;98669;-73
2023/10/21 10:35:42;;;;;;;0.90;0.90;;;;;;;;;;5053206;27;98873;-74
2023/10/21 10:38:24;;;;;;;0.90;0.70;;;;;;;;;;5049563;27;98280;-73
2023/10/21 10:40:57;;;;;;;3.67;0.90;;;;;;;;;;5052495;27;99943;-74
2023/10/21 10:43:24;;;;;;;3.30;0.95;;;;;;;;;;5066625;27;98293;-74
2023/10/21 10:45:51;;;;;;;3.22;1.27;;;;;;;;;;5063911;27;101160;-73
2023/10/21 10:48:17;;;;;;;6.10;1.15;;;;;;;;;;5065963;27;99137;-74
2023/10/21 10:50:44;;;;;;;4.30;0.95;;;;;;;;;;5065207;27;98242;-72
2023/10/21 10:53:19;;;;;;;1.33;1.23;;;;;;;;;;5053453;27;99503;-74
2023/10/21 10:55:47;;;;;;;5.97;1.10;;;;;;;;;;5066898;27;100200;-73
2023/10/21 10:58:14;;;;;;;1.75;0.73;;;;;;;;;;5064192;27;98684;-73
2023/10/21 11:00:41;;;;;;;0.93;0.60;;;;;;;;;;5074340;27;99734;-74
2023/10/21 11:03:07;;;;;;;0.60;0.60;;;;;;;;;;5083101;27;98264;-74
2023/10/21 11:05:37;;;;;;;2.40;0.80;;;;;;;;;;5064553;27;98394;-73
2023/10/21 11:08:05;;;;;;;5.47;0.90;;;;;;;;;;5048344;27;100193;-74
2023/10/21 11:10:32;;;;;;;1.23;0.80;;;;;;;;;;5047161;27;99482;-75
2023/10/21 11:13:03;;;;;;;3.13;1.17;;;;;;;;;;5054332;27;99547;-74
2023/10/21 11:15:29;;;;;;;9.48;1.13;;;;;;;;;;5054415;27;100115;-74
2023/10/21 11:17:56;;;;;;;1.02;0.70;;;;;;;;;;5066338;27;98736;-73
2023/10/21 11:20:22;;;;;;;5.07;1.05;;;;;;;;;;5052470;27;98370;-74
2023/10/21 11:22:53;;;;;;;3.10;1.20;;;;;;;;;;5053511;27;98391;-73
2023/10/21 11:25:20;;;;;;;5.38;1.05;;;;;;;;;;5054497;27;99534;-73
2023/10/21 11:27:47;;;;;;;1.65;0.70;;;;;;;;;;5055672;27;99001;-73
2023/10/21 11:30:13;;;;;;;1.15;0.98;;;;;;;;;;5066882;27;98245;-75
2023/10/21 11:32:39;;;;;;;2.35;0.90;;;;;;;;;;5057945;27;98790;-74
2023/10/21 11:35:10;;;;;;;7.07;0.88;;;;;;;;;;5050826;27;102329;-73
2023/10/21 11:37:38;;;;;;;1.10;0.77;;;;;;;;;;5052691;27;99913;-74
2023/10/21 11:40:05;;;;;;;2.47;1.02;;;;;;;;;;5053856;27;99913;-72
2023/10/21 11:42:32;;;;;;;1.70;0.77;;;;;;;;;;5052426;27;100127;-74
2023/10/21 11:45:03;;;;;;;2.38;0.73;;;;;;;;;;5048703;27;99630;-73
2023/10/21 11:47:30;;;;;;;2.15;1.50;;;;;;;;;;5046741;27;100030;-74
2023/10/21 11:49:57;;;;;;;2.90;0.90;;;;;;;;;;5048630;27;98597;-73
2023/10/21 11:52:26;;;;;;;1.45;0.80;;;;;;;;;;5052807;27;98665;-75
2023/10/21 12:17:06;;;;;;;1.50;0.90;;;;;;;;;;5051530;27;100305;-75
2023/10/21 12:20:30;;;;;;;2.60;0.93;;;;;;;;;;5049294;27;100396;-74
2023/10/21 12:41:19;;;;;;;3.03;1.17;;;;;;;;;;5046180;27;100046;-74
2023/10/21 12:43:48;;;;;;;3.40;1.40;;;;;;;;;;5069379;27;98992;-73
2023/10/21 12:46:18;;;;;;;4.28;1.40;;;;;;;;;;5083767;27;99990;-73
2023/10/21 12:48:51;;;;;;;5.35;1.23;;;;;;;;;;5067857;27;98328;-73
2023/10/21 12:51:21;;;;;;;2.20;1.08;;;;;;;;;;5068691;27;99394;-73
2023/10/21 12:53:48;;;;;;;4.13;1.30;;;;;;;;;;5072774;27;98996;-71
2023/10/21 12:56:23;;;;;;;3.13;1.05;;;;;;;;;;5055633;27;99140;-74
2023/10/21 12:58:49;;;;;;;3.47;1.25;;;;;;;;;;5061299;27;100123;-73
2023/10/21 13:01:19;;;;;;;3.13;1.10;;;;;;;;;;5054805;27;99037;-72
2023/10/21 13:03:49;;;;;;;3.67;1.10;;;;;;;;;;5054330;27;101814;-74
2023/10/21 13:06:16;;;;;;;5.47;1.23;;;;;;;;;;5050068;27;100015;-73
2023/10/21 13:08:43;;;;;;;3.78;1.27;;;;;;;;;;5051415;27;99264;-74
2023/10/21 13:11:14;;;;;;;6.70;1.10;;;;;;;;;;5052356;27;98724;-73
2023/10/21 13:13:41;;;;;;;5.88;1.48;;;;;;;;;;5044756;27;100028;-73
2023/10/21 13:16:08;;;;;;;7.13;1.75;;;;;;;;;;5053355;27;98959;-73
2023/10/21 13:18:35;;;;;;;7.60;1.17;;;;;;;;;;5047956;27;99392;-75
2023/10/21 13:21:02;;;;;;;5.65;1.40;;;;;;;;;;5046942;27;98783;-73
2023/10/21 13:23:28;;;;;;;7.05;1.50;;;;;;;;;;5046396;27;100636;-73
2023/10/21 13:25:55;;;;;;;1.95;1.40;;;;;;;;;;5046223;27;100733;-73
2023/10/21 13:28:21;;;;;;;4.47;1.30;;;;;;;;;;5046591;27;98270;-73
2023/10/21 13:30:48;;;;;;;13.05;1.85;;;;;;;;;;5054761;27;99487;-73
2023/10/21 13:33:14;;;;;;;4.80;1.10;;;;;;;;;;5046171;27;99810;-73
2023/10/21 13:35:41;;;;;;;7.68;1.63;;;;;;;;;;5053256;27;98863;-73
2023/10/21 13:38:11;;;;;;;4.13;1.65;;;;;;;;;;5046873;27;99188;-73
2023/10/21 13:40:38;;;;;;;5.10;1.50;;;;;;;;;;5044450;27;99833;-73
2023/10/21 13:43:05;;;;;;;4.28;1.45;;;;;;;;;;5044739;27;99616;-74
2023/10/21 13:45:32;;;;;;;3.95;1.10;;;;;;;;;;5047869;27;99954;-74
2023/10/21 13:48:17;;;;;;;2.70;0.98;;;;;;;;;;5045524;27;98498;-74
2023/10/21 13:50:45;;;;;;;5.22;1.20;;;;;;;;;;5048730;27;100107;-74
2023/10/21 13:53:11;;;;;;;5.35;1.58;;;;;;;;;;5046121;27;99039;-74
2023/10/21 13:55:42;;;;;;;3.00;1.38;;;;;;;;;;5047512;27;98541;-74
2023/10/21 13:58:10;;;;;;;5.43;1.23;;;;;;;;;;5050442;27;100236;-74
2023/10/21 14:00:36;;;;;;;5.68;1.20;;;;;;;;;;5048466;27;100084;-73
2023/10/21 14:03:10;;;;;;;5.30;2.22;;;;;;;;;;5046847;27;99297;-74
2023/10/21 14:05:37;;;;;;;2.40;1.88;;;;;;;;;;5047146;27;99985;-75
2023/10/21 14:08:08;;;;;;;7.50;1.77;;;;;;;;;;5047116;27;98775;-74
2023/10/21 14:10:36;;;;;;;6.78;1.10;;;;;;;;;;5046806;27;98655;-75
2023/10/21 14:13:05;;;;;;;3.60;1.35;;;;;;;;;;5047664;27;99607;-76
2023/10/21 14:15:33;;;;;;;4.47;2.22;;;;;;;;;;5046539;27;98475;-77
2023/10/21 14:18:00;;;;;;;3.88;1.58;;;;;;;;;;5047364;27;99679;-76
2023/10/21 14:20:27;;;;;;;4.65;1.40;;;;;;;;;;5050081;27;99071;-77
2023/10/21 14:22:53;;;;;;;5.93;1.33;;;;;;;;;;5048055;27;99951;-73
2023/10/21 14:25:20;;;;;;;3.22;1.10;;;;;;;;;;5047476;27;99157;-75
2023/10/21 14:27:47;;;;;;;1.77;1.25;;;;;;;;;;5046313;27;98297;-75
2023/10/21 14:30:13;;;;;;;8.23;1.55;;;;;;;;;;5046158;27;99445;-75
2023/10/21 14:32:41;;;;;;;6.82;2.13;;;;;;;;;;5045167;27;99996;-76
2023/10/21 14:35:10;;;;;;;3.88;1.20;;;;;;;;;;5046882;27;98190;-78
2023/10/21 14:37:37;;;;;;;5.07;1.75;;;;;;;;;;5046071;27;98670;-77
2023/10/21 14:40:06;;;;;;;5.47;1.85;;;;;;;;;;5046824;27;99972;-78
2023/10/21 14:42:34;;;;;;;4.35;1.50;;;;;;;;;;5066489;27;98276;-76
2023/10/21 14:45:08;;;;;;;9.48;1.88;;;;;;;;;;5050440;27;99189;-77
2023/10/21 14:47:35;;;;;;;7.25;2.47;;;;;;;;;;5047216;27;100374;-77
2023/10/21 14:50:05;;;;;;;9.50;1.70;;;;;;;;;;5047305;27;98527;-77
2023/10/21 14:52:34;;;;;;;4.28;1.70;;;;;;;;;;5047936;27;99701;-76
2023/10/21 14:55:00;;;;;;;5.50;1.65;;;;;;;;;;5050076;27;98356;-77
2023/10/21 14:57:27;;;;;;;9.10;2.38;;;;;;;;;;5049480;27;99138;-75
2023/10/21 14:59:54;;;;;;;4.07;1.45;;;;;;;;;;5050221;27;99862;-75
2023/10/21 15:02:22;;;;;;;5.43;1.33;;;;;;;;;;5052049;27;98240;-77
2023/10/21 15:04:49;;;;;;;4.45;1.73;;;;;;;;;;5059150;27;99469;-76
2023/10/21 15:07:16;;;;;;;9.25;1.58;;;;;;;;;;5060206;27;98404;-77
2023/10/21 15:09:43;;;;;;;5.75;1.83;;;;;;;;;;5055449;27;101117;-75
2023/10/21 15:12:11;;;;;;;6.63;2.45;;;;;;;;;;5061029;27;99096;-76
2023/10/21 15:14:40;;;;;;;8.30;2.25;;;;;;;;;;5047111;27;100080;-75
2023/10/21 15:17:23;;;;;;;6.65;2.30;;;;;;;;;;5058141;27;98704;-74